Leesville, Ohio
Current Conditions -  °F | °C
As of 5:53 PM on Monday 22 Dec 2014 (Local Time) from KPHD Reporting Station
Clear Clear  
Wind Chill: 41°   Ceiling: Unl
Heat Index: 44°   Visibility: 10mi
Dew Point: 32°   Wind: 6mph
Humidity: 63%   Direction: NA
Pressure: 29.92"   Gusts: NA
Location:  40.45°N, 81.21°W
Report Text: KPHD 222253Z AUTO VRB05KT 10SM CLR 07/00 A2992 RMK AO2 SLP141 T00670000
Loading
Personal Weather Stations






























Interactive Weather Map New forecast layout! Learn more

10-Day Weather Forecast

Advertisements
Track Severe Weather on mobile